Time;durP1;ratioP1;P1;durP2;ratioP2;P2;SDS_P1;SDS_P2;PMS_P1;PMS_P2;Temp;Humidity;BMP_temperature;BMP_pressure;BME280_temperature;BME280_humidity;BME280_pressure;Samples;Min_cycle;Max_cycle;Signal;HPM_P1;HPM_P2
2023/08/25 00:02:24;;;;;;;26.02;23.65;;;19.00;95.20;;;;;;5062974;28;20502;-45
2023/08/25 00:04:52;;;;;;;28.20;25.33;;;19.00;95.20;;;;;;5051013;28;20083;-45
2023/08/25 00:07:20;;;;;;;31.30;28.05;;;19.00;95.10;;;;;;5071656;28;20028;-45
2023/08/25 00:09:47;;;;;;;28.35;25.40;;;18.90;95.10;;;;;;5056773;28;20112;-45
2023/08/25 00:12:14;;;;;;;31.25;28.13;;;18.90;95.20;;;;;;5070971;28;20131;-45
2023/08/25 00:14:42;;;;;;;29.52;26.75;;;18.90;95.10;;;;;;5068687;28;20094;-45
2023/08/25 00:17:08;;;;;;;31.38;28.17;;;18.90;95.20;;;;;;5038007;28;20026;-45
2023/08/25 00:19:35;;;;;;;26.80;24.50;;;18.90;95.20;;;;;;5053372;28;20036;-46
2023/08/25 00:22:02;;;;;;;31.40;28.38;;;18.90;95.20;;;;;;5052865;28;20020;-46
2023/08/25 00:24:32;;;;;;;31.20;28.10;;;18.90;95.10;;;;;;5045114;28;20037;-46
2023/08/25 00:26:59;;;;;;;29.73;26.73;;;18.90;95.20;;;;;;5037759;28;20034;-45
2023/08/25 00:29:26;;;;;;;32.20;28.90;;;18.90;95.20;;;;;;5031566;28;20034;-46
2023/08/25 00:31:54;;;;;;;28.63;25.83;;;18.80;95.20;;;;;;5038759;28;20039;-46
2023/08/25 00:34:19;;;;;;;29.63;26.92;;;18.80;95.20;;;;;;5061505;28;20025;-45
2023/08/25 00:36:46;;;;;;;31.67;28.60;;;18.80;95.20;;;;;;5075069;28;20053;-46
2023/08/25 00:39:14;;;;;;;29.83;27.10;;;18.80;95.20;;;;;;5067583;28;20039;-46
2023/08/25 00:41:43;;;;;;;32.10;29.15;;;18.80;95.20;;;;;;5055704;28;20021;-45
2023/08/25 00:44:11;;;;;;;28.70;26.08;;;18.70;95.20;;;;;;5073935;28;20044;-46
2023/08/25 00:46:40;;;;;;;32.00;28.90;;;18.70;95.30;;;;;;5058217;28;20036;-45
2023/08/25 00:49:10;;;;;;;36.40;33.10;;;18.70;95.30;;;;;;5049812;28;20036;-45
2023/08/25 00:51:37;;;;;;;33.38;30.00;;;18.70;95.30;;;;;;5057688;28;20446;-46
2023/08/25 00:54:07;;;;;;;30.92;27.77;;;18.70;95.40;;;;;;5067496;28;20427;-45
2023/08/25 00:56:33;;;;;;;38.67;35.00;;;18.70;95.40;;;;;;5072713;28;20025;-45
2023/08/25 00:59:01;;;;;;;34.90;31.55;;;18.70;95.40;;;;;;5019524;28;20041;-45
2023/08/25 01:01:28;;;;;;;34.58;31.38;;;18.70;95.40;;;;;;5051712;28;20060;-49
2023/08/25 01:03:59;;;;;;;33.92;30.77;;;18.70;95.40;;;;;;5061301;28;20438;-46
2023/08/25 01:06:26;;;;;;;34.90;31.70;;;18.70;95.40;;;;;;5041286;28;20098;-45
2023/08/25 01:08:53;;;;;;;35.08;31.45;;;18.70;95.40;;;;;;5068778;28;20029;-45
2023/08/25 01:11:47;;;;;;;34.80;30.73;;;18.70;95.40;;;;;;5047291;28;20036;-45
2023/08/25 01:14:43;;;;;;;30.48;27.77;;;18.70;95.40;;;;;;5074581;28;20020;-45
2023/08/25 01:17:25;;;;;;;34.70;31.38;;;18.70;95.50;;;;;;5058252;28;20033;-45
2023/08/25 01:20:08;;;;;;;30.55;28.00;;;18.70;95.50;;;;;;5048844;28;20049;-45
2023/08/25 01:22:56;;;;;;;28.55;25.95;;;18.60;95.50;;;;;;5037804;28;20100;-46
2023/08/25 01:25:30;;;;;;;32.28;29.38;;;18.70;95.60;;;;;;5043586;28;20115;-44
2023/08/25 01:27:59;;;;;;;31.42;28.10;;;18.70;95.50;;;;;;5041294;28;20349;-45
2023/08/25 01:30:27;;;;;;;31.98;28.90;;;18.70;95.60;;;;;;5035349;28;20033;-45
2023/08/25 01:32:54;;;;;;;32.03;28.60;;;18.70;95.60;;;;;;5073862;28;20449;-45
2023/08/25 01:35:47;;;;;;;34.00;27.92;;;18.60;95.60;;;;;;5020920;28;20362;-45
2023/08/25 01:38:43;;;;;;;29.85;27.15;;;18.60;95.60;;;;;;5036900;28;20043;-44
2023/08/25 01:41:40;;;;;;;29.48;26.40;;;18.70;95.60;;;;;;5029619;28;20365;-45
2023/08/25 01:44:09;;;;;;;35.25;31.55;;;18.60;95.60;;;;;;5065575;28;20029;-45
2023/08/25 01:46:38;;;;;;;30.98;28.23;;;18.60;95.70;;;;;;5036866;28;20038;-45
2023/08/25 01:49:07;;;;;;;32.75;29.30;;;18.60;95.70;;;;;;5035049;28;20552;-46
2023/08/25 01:51:34;;;;;;;33.05;29.80;;;18.60;95.70;;;;;;5050467;28;20115;-44
2023/08/25 01:54:00;;;;;;;36.03;32.88;;;18.60;95.70;;;;;;5051488;28;20104;-45
2023/08/25 01:56:26;;;;;;;32.35;28.40;;;18.60;95.70;;;;;;5039430;28;20033;-46
2023/08/25 01:58:52;;;;;;;30.60;27.75;;;18.70;95.80;;;;;;5034006;28;20043;-46
2023/08/25 02:01:18;;;;;;;30.75;27.60;;;18.60;95.70;;;;;;5049933;28;20028;-45
2023/08/25 02:03:46;;;;;;;34.70;31.50;;;18.70;95.70;;;;;;5072983;28;20381;-45
2023/08/25 02:06:12;;;;;;;33.22;30.25;;;18.60;95.70;;;;;;5052324;28;20589;-45
2023/08/25 02:08:38;;;;;;;37.47;33.70;;;18.60;95.80;;;;;;5039213;28;20100;-46
2023/08/25 02:11:04;;;;;;;36.28;33.05;;;18.70;95.80;;;;;;5046655;28;20127;-45
2023/08/25 02:13:31;;;;;;;38.17;34.10;;;18.60;95.80;;;;;;5046678;28;20044;-45
2023/08/25 02:16:02;;;;;;;30.90;27.85;;;18.70;95.80;;;;;;5055314;28;20024;-46
2023/08/25 02:18:31;;;;;;;33.83;30.52;;;18.70;95.90;;;;;;5055495;28;20087;-46
2023/08/25 02:20:59;;;;;;;36.88;33.42;;;18.60;95.80;;;;;;5044275;28;20040;-47
2023/08/25 02:23:27;;;;;;;37.35;33.47;;;18.70;95.80;;;;;;5031493;28;20025;-46
2023/08/25 02:25:53;;;;;;;37.50;33.50;;;18.60;95.80;;;;;;5055491;28;20353;-45
2023/08/25 02:28:21;;;;;;;36.92;33.42;;;18.70;95.80;;;;;;5037670;28;20115;-47
2023/08/25 02:30:48;;;;;;;38.60;34.97;;;18.70;95.90;;;;;;5069396;28;20040;-44
2023/08/25 02:33:13;;;;;;;39.33;35.15;;;18.60;95.80;;;;;;5032370;28;20053;-46
2023/08/25 02:35:41;;;;;;;38.22;34.28;;;18.60;95.90;;;;;;5054597;28;20509;-45
2023/08/25 02:38:10;;;;;;;38.60;35.00;;;18.60;95.80;;;;;;5055186;28;20107;-47
2023/08/25 02:40:38;;;;;;;40.28;36.47;;;18.60;95.80;;;;;;5057485;28;20035;-45
2023/08/25 02:43:09;;;;;;;39.83;35.88;;;18.60;95.90;;;;;;5072866;28;20338;-46
2023/08/25 02:45:37;;;;;;;38.92;34.95;;;18.60;95.90;;;;;;5050790;28;20997;-45
2023/08/25 02:48:10;;;;;;;42.03;37.83;;;18.60;95.90;;;;;;5072774;28;20438;-46
2023/08/25 02:50:36;;;;;;;40.38;36.30;;;18.60;95.90;;;;;;5061917;28;20020;-45
2023/08/25 02:53:03;;;;;;;37.80;34.03;;;18.60;95.90;;;;;;5071590;28;20028;-46
2023/08/25 02:55:34;;;;;;;44.10;39.78;;;18.70;96.00;;;;;;5054338;28;20025;-45
2023/08/25 02:58:01;;;;;;;43.65;39.17;;;18.70;96.00;;;;;;5051732;28;20078;-47
2023/08/25 03:00:28;;;;;;;47.85;42.97;;;18.70;96.00;;;;;;5053797;28;20036;-45
2023/08/25 03:02:57;;;;;;;47.45;42.58;;;18.80;96.10;;;;;;5035098;28;20049;-45
2023/08/25 03:05:25;;;;;;;48.38;43.55;;;18.80;96.10;;;;;;5041589;28;20443;-45
2023/08/25 03:07:56;;;;;;;49.42;43.55;;;18.80;96.10;;;;;;5032560;28;20033;-45
2023/08/25 03:10:22;;;;;;;48.05;42.92;;;18.90;96.20;;;;;;5045450;28;20068;-45
2023/08/25 03:12:48;;;;;;;51.55;45.33;;;18.90;96.20;;;;;;5045176;28;20131;-44
2023/08/25 03:15:16;;;;;;;52.25;46.70;;;18.90;96.20;;;;;;5069257;28;20111;-45
2023/08/25 03:17:43;;;;;;;54.72;49.20;;;18.90;96.20;;;;;;5061014;28;20035;-46
2023/08/25 03:20:10;;;;;;;48.40;43.58;;;18.90;96.20;;;;;;5065735;28;20020;-45
2023/08/25 03:22:37;;;;;;;49.33;44.40;;;18.90;96.20;;;;;;5057796;28;20237;-46
2023/08/25 03:25:03;;;;;;;52.03;46.90;;;18.90;96.20;;;;;;5035098;28;20029;-45
2023/08/25 03:27:32;;;;;;;50.95;45.55;;;18.90;96.10;;;;;;5047232;28;20020;-46
2023/08/25 03:30:04;;;;;;;;;;;18.90;96.10;;;;;;5052611;28;20028;-47
2023/08/25 03:32:31;;;;;;;49.25;44.38;;;18.90;96.20;;;;;;5054334;28;20293;-46
2023/08/25 03:35:01;;;;;;;48.70;43.78;;;18.90;96.20;;;;;;5063230;28;20055;-45
2023/08/25 03:37:27;;;;;;;56.20;49.90;;;18.90;96.20;;;;;;5049445;28;20045;-47
2023/08/25 03:39:55;;;;;;;50.60;45.13;;;18.90;96.20;;;;;;5031661;28;20732;-44
2023/08/25 03:42:22;;;;;;;57.78;49.95;;;18.90;96.20;;;;;;5034946;28;20030;-47
2023/08/25 03:44:52;;;;;;;57.60;51.75;;;18.90;96.20;;;;;;5014758;28;20387;-47
2023/08/25 03:47:20;;;;;;;53.83;46.15;;;18.90;96.20;;;;;;5062711;28;20028;-46
2023/08/25 03:49:46;;;;;;;51.42;46.30;;;18.90;96.20;;;;;;5068136;28;20020;-45
2023/08/25 03:52:13;;;;;;;62.42;54.42;;;18.90;96.20;;;;;;5060064;28;20025;-44
2023/08/25 03:54:40;;;;;;;56.53;50.80;;;18.90;96.20;;;;;;5033476;28;20083;-46
2023/08/25 03:57:08;;;;;;;58.72;52.53;;;18.90;96.20;;;;;;5034131;28;20031;-45
2023/08/25 03:59:35;;;;;;;56.45;50.60;;;19.00;96.20;;;;;;5032214;28;20375;-45
2023/08/25 04:02:03;;;;;;;54.53;48.80;;;18.90;96.20;;;;;;5029592;28;20132;-45
2023/08/25 04:04:34;;;;;;;56.42;50.50;;;18.90;96.20;;;;;;5045616;28;20136;-45
2023/08/25 04:07:00;;;;;;;;;;;19.00;96.20;;;;;;5031802;28;20067;-46
2023/08/25 04:09:27;;;;;;;54.67;49.00;;;18.90;96.20;;;;;;5076158;28;20392;-45
2023/08/25 04:11:54;;;;;;;53.40;47.95;;;18.90;96.20;;;;;;5049450;28;20119;-45
2023/08/25 04:14:27;;;;;;;54.67;48.80;;;18.90;96.20;;;;;;5041732;28;20029;-45
2023/08/25 04:16:57;;;;;;;54.13;48.20;;;18.90;96.20;;;;;;5038590;28;20434;-46
2023/08/25 04:19:25;;;;;;;51.88;46.38;;;18.90;96.20;;;;;;5064907;28;20033;-45
2023/08/25 04:21:52;;;;;;;54.70;49.03;;;18.90;96.20;;;;;;5063416;28;20158;-46
2023/08/25 04:24:21;;;;;;;57.20;51.08;;;18.90;96.20;;;;;;5075458;28;20067;-46
2023/08/25 04:26:50;;;;;;;54.92;49.33;;;18.90;96.10;;;;;;5051364;28;20434;-44
2023/08/25 04:29:17;;;;;;;52.13;46.45;;;18.90;96.20;;;;;;5074321;28;20036;-46
2023/08/25 04:31:44;;;;;;;54.50;48.72;;;18.90;96.20;;;;;;5070452;28;20033;-45
2023/08/25 04:34:11;;;;;;;53.53;48.15;;;18.90;96.20;;;;;;5018313;28;20038;-45
2023/08/25 04:36:39;;;;;;;51.63;46.10;;;18.90;96.20;;;;;;5043676;28;20489;-48
2023/08/25 04:39:06;;;;;;;55.33;48.17;;;18.90;96.20;;;;;;5071947;28;20394;-45
2023/08/25 04:41:33;;;;;;;57.55;50.13;;;18.90;96.10;;;;;;5065903;28;20151;-46
2023/08/25 04:44:01;;;;;;;55.17;49.35;;;18.90;96.10;;;;;;5073259;28;20066;-44
2023/08/25 04:46:29;;;;;;;48.38;43.50;;;18.90;96.10;;;;;;5061192;28;20036;-45
2023/08/25 04:48:59;;;;;;;52.78;46.33;;;18.90;96.20;;;;;;5075361;28;20369;-45
2023/08/25 04:51:26;;;;;;;52.50;46.50;;;18.90;96.10;;;;;;5065789;28;20056;-45
2023/08/25 04:53:53;;;;;;;47.63;42.53;;;18.90;96.10;;;;;;5048659;28;20029;-46
2023/08/25 04:56:29;;;;;;;48.65;43.38;;;18.90;96.10;;;;;;5049630;28;20036;-45
2023/08/25 04:58:56;;;;;;;57.83;48.70;;;18.90;96.00;;;;;;5074896;28;20111;-46
2023/08/25 05:01:24;;;;;;;51.67;46.08;;;19.00;96.00;;;;;;5053008;28;20071;-45
2023/08/25 05:03:52;;;;;;;54.85;43.20;;;18.90;95.90;;;;;;5075147;28;20390;-45
2023/08/25 05:06:21;;;;;;;53.97;45.53;;;18.90;95.90;;;;;;5041974;28;20030;-47
2023/08/25 05:08:51;;;;;;;52.78;45.95;;;18.90;95.80;;;;;;5063568;28;20155;-45
2023/08/25 05:11:18;;;;;;;50.53;43.95;;;18.90;95.80;;;;;;5058055;28;20047;-45
2023/08/25 05:13:45;;;;;;;49.38;42.88;;;18.90;95.80;;;;;;5074896;28;20499;-46
2023/08/25 05:16:17;;;;;;;45.17;40.28;;;18.90;95.80;;;;;;5071236;28;20055;-45
2023/08/25 05:18:45;;;;;;;50.95;43.72;;;18.90;95.80;;;;;;5066697;28;20027;-45
2023/08/25 05:21:12;;;;;;;42.55;38.13;;;18.90;95.70;;;;;;5034531;28;20040;-46
2023/08/25 05:23:46;;;;;;;45.33;40.33;;;18.90;95.80;;;;;;5054049;28;20044;-45
2023/08/25 05:26:19;;;;;;;43.28;38.83;;;18.90;95.80;;;;;;5035075;28;20442;-45
2023/08/25 05:28:47;;;;;;;41.53;37.08;;;18.90;95.70;;;;;;5058506;28;20369;-46
2023/08/25 05:31:12;;;;;;;37.78;33.97;;;19.00;95.70;;;;;;5035037;28;20033;-46
2023/08/25 05:33:44;;;;;;;37.65;33.50;;;19.00;95.70;;;;;;5051587;28;20033;-46
2023/08/25 05:36:11;;;;;;;41.03;36.92;;;19.00;95.70;;;;;;5047661;28;20043;-46
2023/08/25 05:38:38;;;;;;;39.33;34.53;;;19.10;95.70;;;;;;5060110;28;20025;-45
2023/08/25 05:41:05;;;;;;;40.67;36.45;;;19.10;95.80;;;;;;5042040;28;20040;-49
2023/08/25 05:43:31;;;;;;;37.30;33.60;;;19.20;95.80;;;;;;5052096;28;20041;-46
2023/08/25 05:45:57;;;;;;;36.60;32.60;;;19.20;95.80;;;;;;5050655;28;20560;-46
2023/08/25 05:48:23;;;;;;;42.03;37.67;;;19.30;95.80;;;;;;5049935;28;20036;-46
2023/08/25 05:50:50;;;;;;;47.20;42.20;;;19.40;95.80;;;;;;5050403;28;20391;-47
2023/08/25 05:53:17;;;;;;;47.40;41.65;;;19.40;95.70;;;;;;5053525;28;20043;-48
2023/08/25 05:55:42;;;;;;;45.63;40.97;;;19.40;95.70;;;;;;5050468;28;20028;-45
2023/08/25 05:58:11;;;;;;;46.08;41.38;;;19.40;95.60;;;;;;5048433;28;20025;-46
2023/08/25 06:00:37;;;;;;;40.92;36.35;;;19.50;95.60;;;;;;5050573;28;20040;-45
2023/08/25 06:03:05;;;;;;;43.45;38.58;;;19.40;95.50;;;;;;5053028;28;20037;-45
2023/08/25 06:05:31;;;;;;;42.72;38.15;;;19.50;95.50;;;;;;5048038;28;20040;-46
2023/08/25 06:07:56;;;;;;;52.40;47.00;;;19.50;95.50;;;;;;5060853;28;20040;-46
2023/08/25 06:10:24;;;;;;;52.95;47.33;;;19.50;95.40;;;;;;5038720;28;20035;-45
2023/08/25 06:12:53;;;;;;;54.97;49.30;;;19.50;95.40;;;;;;5060855;28;20041;-46
2023/08/25 06:15:19;;;;;;;48.05;43.08;;;19.70;95.50;;;;;;5069728;28;20028;-47
2023/08/25 06:17:46;;;;;;;47.30;42.22;;;19.70;95.50;;;;;;5060443;28;20028;-45
2023/08/25 06:20:12;;;;;;;50.80;42.72;;;19.70;95.40;;;;;;5061979;28;20104;-45
2023/08/25 06:22:40;;;;;;;42.67;38.22;;;19.80;95.30;;;;;;5033829;28;20163;-45
2023/08/25 06:25:08;;;;;;;49.03;44.15;;;19.80;95.30;;;;;;5051005;28;20533;-46
2023/08/25 06:27:37;;;;;;;54.17;48.33;;;19.90;95.30;;;;;;5050381;28;20056;-45
2023/08/25 06:30:10;;;;;;;54.65;48.78;;;19.90;95.10;;;;;;5050053;28;20040;-52
2023/08/25 06:32:37;;;;;;;47.22;42.28;;;19.90;95.00;;;;;;5050019;28;20488;-46
2023/08/25 06:35:04;;;;;;;47.75;42.65;;;19.90;95.00;;;;;;5046385;28;20057;-46
2023/08/25 06:37:31;;;;;;;56.00;48.78;;;19.90;94.70;;;;;;5030743;28;20473;-46
2023/08/25 06:39:59;;;;;;;62.63;50.10;;;19.90;94.60;;;;;;5050530;28;20040;-46
2023/08/25 06:42:27;;;;;;;55.95;49.63;;;19.90;94.80;;;;;;5031604;28;20033;-47
2023/08/25 06:45:00;;;;;;;56.85;50.55;;;19.90;94.70;;;;;;5012058;28;20021;-46
2023/08/25 06:47:27;;;;;;;63.08;50.80;;;20.00;94.70;;;;;;5030542;28;20582;-48
2023/08/25 06:49:56;;;;;;;58.42;50.95;;;20.00;94.60;;;;;;5028806;28;20022;-47
2023/08/25 06:52:23;;;;;;;57.85;50.15;;;20.10;94.60;;;;;;4995764;28;20029;-46
2023/08/25 06:54:49;;;;;;;53.58;46.88;;;20.10;94.40;;;;;;5013063;28;20022;-47
2023/08/25 06:57:17;;;;;;;64.72;52.65;;;20.00;94.20;;;;;;5030553;28;20072;-47
2023/08/25 06:59:44;;;;;;;68.80;55.17;;;19.90;94.00;;;;;;5031952;28;20030;-46
2023/08/25 07:02:13;;;;;;;60.15;50.50;;;19.90;94.00;;;;;;5031803;28;20109;-46
2023/08/25 07:04:42;;;;;;;56.95;48.65;;;19.90;94.10;;;;;;5030652;28;20017;-46
2023/08/25 07:07:09;;;;;;;64.57;53.03;;;19.90;94.20;;;;;;5029318;28;20056;-47
2023/08/25 07:09:37;;;;;;;64.43;53.28;;;20.00;94.00;;;;;;5032613;28;20036;-46
2023/08/25 07:12:04;;;;;;;59.33;49.55;;;20.00;94.00;;;;;;5005035;28;20104;-46
2023/08/25 07:14:32;;;;;;;62.83;53.50;;;20.10;94.30;;;;;;5019012;28;20036;-47
2023/08/25 07:16:59;;;;;;;58.35;50.20;;;20.10;94.10;;;;;;5016116;28;20451;-47
2023/08/25 07:19:27;;;;;;;53.03;44.55;;;20.20;94.10;;;;;;4995481;28;20034;-47
2023/08/25 07:21:54;;;;;;;45.55;40.40;;;20.30;94.10;;;;;;5002190;28;20017;-47
2023/08/25 07:24:20;;;;;;;55.55;46.53;;;20.40;94.20;;;;;;5030309;28;20025;-49
2023/08/25 07:26:49;;;;;;;51.13;44.22;;;20.40;94.20;;;;;;5045081;28;20458;-47
2023/08/25 07:29:15;;;;;;;54.17;48.40;;;20.40;94.00;;;;;;5028131;28;20029;-47
2023/08/25 07:31:42;;;;;;;56.15;50.13;;;20.40;93.80;;;;;;5018418;28;20437;-48
2023/08/25 07:34:13;;;;;;;65.72;51.20;;;20.40;93.50;;;;;;5011623;28;20092;-48
2023/08/25 07:36:45;;;;;;;49.72;44.30;;;20.40;93.50;;;;;;5029602;28;20076;-49
2023/08/25 07:39:11;;;;;;;50.92;43.88;;;20.40;93.50;;;;;;5048864;28;20057;-48
2023/08/25 07:41:39;;;;;;;55.03;48.78;;;20.40;93.50;;;;;;5031411;28;20028;-47
2023/08/25 07:44:08;;;;;;;53.17;47.17;;;20.40;93.50;;;;;;5048852;28;20079;-48
2023/08/25 07:46:38;;;;;;;60.60;53.33;;;20.50;93.70;;;;;;5044450;28;20056;-48
2023/08/25 07:49:08;;;;;;;54.22;48.30;;;20.60;93.60;;;;;;5031904;28;20080;-49
2023/08/25 07:51:40;;;;;;;53.40;46.63;;;20.80;93.60;;;;;;5045670;28;20033;-51
2023/08/25 07:54:10;;;;;;;56.55;48.75;;;20.70;93.10;;;;;;5045033;28;20029;-47
2023/08/25 07:56:38;;;;;;;48.65;43.58;;;20.60;93.00;;;;;;5037972;28;20099;-48
2023/08/25 07:59:05;;;;;;;38.63;32.47;;;20.50;93.00;;;;;;5043734;28;20025;-47
2023/08/25 08:01:33;;;;;;;28.17;25.17;;;20.40;92.40;;;;;;5045766;28;20068;-49
2023/08/25 08:03:59;;;;;;;27.92;24.50;;;20.20;92.30;;;;;;5055979;28;20029;-49
2023/08/25 08:06:27;;;;;;;27.70;23.98;;;20.10;92.20;;;;;;5048742;28;20525;-47
2023/08/25 08:08:53;;;;;;;22.55;20.35;;;19.90;92.30;;;;;;5046441;28;20051;-48
2023/08/25 08:11:21;;;;;;;26.05;23.27;;;19.90;92.40;;;;;;5040434;28;20041;-47
2023/08/25 08:13:47;;;;;;;27.40;22.00;;;19.80;92.40;;;;;;5043529;28;20443;-47
2023/08/25 08:16:13;;;;;;;22.52;20.10;;;19.70;92.60;;;;;;5035474;28;20100;-51
2023/08/25 08:18:39;;;;;;;21.85;19.88;;;19.60;92.70;;;;;;5039993;28;20033;-50
2023/08/25 08:21:06;;;;;;;21.58;18.08;;;19.70;93.00;;;;;;5051426;28;20035;-49
2023/08/25 08:23:34;;;;;;;19.17;16.33;;;19.70;93.00;;;;;;5040906;28;20033;-47
2023/08/25 08:26:03;;;;;;;21.00;18.75;;;19.80;93.10;;;;;;5044479;28;20029;-46
2023/08/25 08:28:29;;;;;;;23.73;20.27;;;19.80;93.00;;;;;;5048287;28;20036;-48
2023/08/25 08:30:58;;;;;;;22.90;20.55;;;19.70;93.00;;;;;;5049638;28;20116;-47
2023/08/25 08:33:25;;;;;;;19.05;17.27;;;19.60;92.90;;;;;;5048992;28;20029;-46
2023/08/25 08:35:53;;;;;;;21.75;19.17;;;19.60;92.90;;;;;;5047211;28;20531;-49
2023/08/25 08:38:20;;;;;;;22.65;20.33;;;19.60;93.10;;;;;;5034767;28;20463;-47
2023/08/25 08:40:49;;;;;;;19.35;16.45;;;19.60;93.10;;;;;;5040208;28;20454;-48
2023/08/25 08:43:20;;;;;;;18.63;16.50;;;19.60;93.20;;;;;;5054090;28;20029;-52
2023/08/25 08:45:51;;;;;;;22.30;18.90;;;19.80;93.30;;;;;;5049833;28;20063;-50
2023/08/25 08:48:20;;;;;;;19.67;16.52;;;19.80;93.10;;;;;;5055648;28;20064;-49
2023/08/25 08:50:46;;;;;;;19.45;17.48;;;19.90;93.10;;;;;;5036373;28;20056;-48
2023/08/25 08:53:14;;;;;;;20.25;18.17;;;20.00;93.10;;;;;;5051048;28;20071;-48
2023/08/25 08:55:43;;;;;;;21.67;17.50;;;20.30;93.10;;;;;;5053201;28;20017;-48
2023/08/25 08:58:15;;;;;;;19.02;16.15;;;20.40;92.10;;;;;;5033326;28;20017;-49
2023/08/25 09:00:44;;;;;;;17.23;14.43;;;20.60;91.70;;;;;;5040048;28;20036;-49
2023/08/25 09:03:20;;;;;;;16.58;14.50;;;20.80;91.30;;;;;;5033652;28;20021;-48
2023/08/25 09:05:49;;;;;;;16.73;14.77;;;20.90;90.70;;;;;;5029691;28;20056;-48
2023/08/25 09:08:18;;;;;;;15.82;14.10;;;21.00;89.70;;;;;;5032903;28;20216;-50
2023/08/25 09:10:46;;;;;;;16.40;13.00;;;21.00;89.10;;;;;;5031630;28;20124;-48
2023/08/25 09:13:12;;;;;;;11.75;10.63;;;21.10;89.40;;;;;;5042161;28;20029;-49
2023/08/25 09:15:40;;;;;;;14.77;12.77;;;21.10;89.30;;;;;;5047022;28;20029;-48
2023/08/25 09:18:09;;;;;;;13.88;12.55;;;21.00;88.60;;;;;;5055527;28;20038;-49
2023/08/25 09:20:40;;;;;;;15.47;9.67;;;21.00;88.90;;;;;;5050840;28;20569;-48
2023/08/25 09:23:09;;;;;;;15.18;10.27;;;20.90;88.80;;;;;;5034096;28;20029;-50
2023/08/25 09:25:45;;;;;;;11.45;9.60;;;20.90;88.70;;;;;;5026702;28;20124;-55
2023/08/25 09:28:13;;;;;;;13.38;10.45;;;20.90;88.70;;;;;;5047302;28;20028;-51
2023/08/25 09:30:44;;;;;;;12.75;11.40;;;21.00;88.80;;;;;;5029280;28;20331;-49
2023/08/25 09:33:13;;;;;;;11.88;9.30;;;21.00;87.70;;;;;;5046441;28;20505;-49
2023/08/25 09:35:40;;;;;;;13.25;9.27;;;21.00;88.00;;;;;;5039871;28;20052;-49
2023/08/25 09:38:24;;;;;;;12.93;10.32;;;21.20;88.20;;;;;;5045490;28;20029;-49
2023/08/25 09:40:52;;;;;;;10.98;8.48;;;21.30;87.90;;;;;;5029400;28;20029;-49
2023/08/25 09:43:33;;;;;;;12.98;9.15;;;21.40;87.90;;;;;;5040338;28;20071;-48
2023/08/25 09:46:00;;;;;;;11.77;8.30;;;21.40;87.90;;;;;;5016022;28;20307;-51
2023/08/25 09:48:33;;;;;;;15.75;10.43;;;21.50;87.70;;;;;;5046430;28;20036;-51
2023/08/25 09:51:00;;;;;;;17.05;9.48;;;21.60;87.30;;;;;;5016610;28;20044;-48
2023/08/25 09:53:33;;;;;;;10.32;8.38;;;21.60;86.60;;;;;;5049275;28;20048;-49
2023/08/25 09:56:15;;;;;;;8.20;6.57;;;21.70;86.30;;;;;;5030631;28;20044;-51
2023/08/25 09:59:00;;;;;;;10.43;8.07;;;21.80;86.80;;;;;;5049124;28;20029;-49
2023/08/25 10:01:28;;;;;;;11.77;9.07;;;21.80;86.00;;;;;;5033188;28;20037;-50
2023/08/25 10:04:00;;;;;;;10.87;7.97;;;21.70;85.20;;;;;;5049131;28;20025;-49
2023/08/25 10:06:33;;;;;;;12.02;9.30;;;21.70;85.70;;;;;;5032131;28;20032;-49
2023/08/25 10:09:20;;;;;;;12.02;8.70;;;21.80;85.90;;;;;;5032674;28;20048;-49
2023/08/25 10:11:49;;;;;;;14.43;9.77;;;21.80;85.40;;;;;;5054319;28;20029;-51
2023/08/25 10:14:17;;;;;;;13.60;9.23;;;21.70;85.10;;;;;;5046883;28;20041;-52
2023/08/25 10:16:52;;;;;;;13.25;9.70;;;21.70;85.20;;;;;;5054735;28;20036;-52
2023/08/25 10:19:23;;;;;;;14.77;9.40;;;21.60;85.40;;;;;;5044298;28;20036;-49
2023/08/25 10:21:52;;;;;;;14.27;10.00;;;21.60;85.80;;;;;;5032813;28;20029;-51
2023/08/25 10:24:20;;;;;;;14.10;9.73;;;21.60;85.80;;;;;;5035061;28;20387;-53
2023/08/25 10:26:48;;;;;;;12.55;8.65;;;21.40;85.50;;;;;;5031326;28;20024;-50
2023/08/25 10:29:21;;;;;;;13.43;9.45;;;21.40;85.80;;;;;;5042495;28;20438;-49
2023/08/25 10:32:07;;;;;;;12.27;7.82;;;21.40;85.70;;;;;;5048174;28;20036;-50
2023/08/25 10:34:45;;;;;;;12.05;9.65;;;21.30;85.90;;;;;;5028211;28;20041;-54
2023/08/25 10:37:37;;;;;;;12.88;9.05;;;21.20;86.40;;;;;;5040564;28;20362;-50
2023/08/25 10:40:12;;;;;;;12.30;7.97;;;21.30;86.90;;;;;;5049263;28;20029;-50
2023/08/25 10:42:38;;;;;;;12.07;9.00;;;21.40;87.00;;;;;;5033074;28;20033;-54
2023/08/25 10:45:22;;;;;;;12.88;8.57;;;21.40;86.50;;;;;;5053743;28;20665;-50
2023/08/25 10:47:51;;;;;;;14.85;10.23;;;21.50;86.30;;;;;;5044523;28;20106;-50
2023/08/25 10:50:26;;;;;;;11.40;7.57;;;21.40;85.30;;;;;;5051345;28;20065;-51
2023/08/25 10:52:55;;;;;;;15.05;10.18;;;21.40;85.60;;;;;;5034904;28;20033;-52
2023/08/25 10:55:36;;;;;;;13.45;8.40;;;21.50;85.60;;;;;;5042302;28;20052;-53
2023/08/25 10:58:17;;;;;;;14.68;9.70;;;21.50;85.50;;;;;;5018706;28;20033;-51
2023/08/25 11:01:00;;;;;;;13.73;9.60;;;21.40;85.20;;;;;;5025872;28;20342;-50
2023/08/25 11:04:01;;;;;;;13.65;8.93;;;21.40;85.50;;;;;;5031057;28;20029;-49
2023/08/25 11:06:47;;;;;;;10.68;8.68;;;21.40;85.90;;;;;;5054890;28;20028;-51
2023/08/25 11:09:39;;;;;;;12.57;8.52;;;21.30;86.50;;;;;;5037543;28;20331;-49
2023/08/25 11:12:24;;;;;;;12.82;8.57;;;21.20;86.10;;;;;;5052605;28;20413;-49
2023/08/25 11:15:02;;;;;;;9.52;7.90;;;21.20;86.60;;;;;;5024785;28;20029;-48
2023/08/25 11:17:35;;;;;;;14.88;10.82;;;21.10;86.90;;;;;;5044547;28;20025;-51
2023/08/25 11:20:04;;;;;;;14.65;11.15;;;21.10;87.40;;;;;;5055058;28;20466;-50
2023/08/25 11:22:30;;;;;;;15.40;9.75;;;21.10;87.50;;;;;;5010564;28;20060;-48
2023/08/25 11:24:58;;;;;;;14.52;11.60;;;21.10;87.70;;;;;;5049366;28;20539;-50
2023/08/25 11:27:31;;;;;;;11.35;9.65;;;21.10;87.90;;;;;;5043133;28;20099;-50
2023/08/25 11:30:14;;;;;;;15.05;10.95;;;21.20;87.70;;;;;;5030994;28;20083;-48
2023/08/25 11:32:41;;;;;;;13.43;11.05;;;21.30;87.50;;;;;;5044238;28;20025;-49
2023/08/25 11:35:14;;;;;;;20.25;13.27;;;21.40;87.60;;;;;;5037678;28;20362;-49
2023/08/25 11:37:46;;;;;;;14.73;12.68;;;21.40;86.90;;;;;;5055776;28;20055;-50
2023/08/25 11:40:19;;;;;;;21.30;13.45;;;21.50;86.80;;;;;;5056986;28;20035;-49
2023/08/25 11:42:48;;;;;;;15.90;11.80;;;21.50;86.40;;;;;;5048651;28;20032;-53
2023/08/25 11:45:17;;;;;;;15.52;13.00;;;21.40;86.10;;;;;;5035845;28;20071;-52
2023/08/25 11:47:44;;;;;;;12.93;10.48;;;21.30;86.00;;;;;;5046602;28;20069;-50
2023/08/25 11:50:10;;;;;;;17.77;12.30;;;21.30;86.20;;;;;;5052877;28;20090;-49
2023/08/25 11:52:38;;;;;;;15.27;10.98;;;21.20;86.30;;;;;;5045399;28;20131;-48
2023/08/25 11:55:05;;;;;;;12.75;11.10;;;21.20;86.70;;;;;;5025502;28;20069;-49
2023/08/25 11:57:54;;;;;;;13.32;9.73;;;21.10;87.00;;;;;;5048616;28;20056;-49
2023/08/25 12:00:21;;;;;;;10.88;8.82;;;21.10;87.30;;;;;;5047414;28;20056;-48
2023/08/25 12:02:59;;;;;;;14.80;11.63;;;21.00;87.50;;;;;;5048940;28;20033;-48
2023/08/25 12:05:30;;;;;;;15.75;12.82;;;21.10;88.20;;;;;;5050320;28;20037;-49
2023/08/25 12:08:03;;;;;;;14.73;11.23;;;21.10;88.00;;;;;;5022443;28;20032;-51
2023/08/25 12:10:40;;;;;;;12.80;10.65;;;21.00;87.90;;;;;;5043551;28;20170;-44
2023/08/25 12:13:07;;;;;;;16.95;14.25;;;20.90;88.10;;;;;;5045714;28;20036;-49
2023/08/25 12:15:45;;;;;;;18.13;12.60;;;20.80;88.20;;;;;;5024446;28;21667;-48
2023/08/25 12:18:13;;;;;;;15.55;13.85;;;20.70;88.60;;;;;;5045950;28;20075;-50
2023/08/25 12:20:44;;;;;;;19.55;14.60;;;20.50;89.00;;;;;;5051325;28;20040;-47
2023/08/25 12:23:10;;;;;;;20.27;16.63;;;20.40;89.50;;;;;;5016651;28;20064;-48
2023/08/25 12:25:42;;;;;;;21.55;15.88;;;20.30;89.90;;;;;;5040721;28;20057;-51
2023/08/25 12:28:10;;;;;;;19.50;16.38;;;20.20;90.20;;;;;;5038977;28;20044;-49
2023/08/25 12:30:36;;;;;;;18.85;16.85;;;20.10;90.60;;;;;;5038913;28;20036;-48
2023/08/25 12:33:05;;;;;;;22.30;17.45;;;20.10;90.90;;;;;;5055290;28;20025;-50
2023/08/25 12:35:34;;;;;;;20.63;17.58;;;20.10;91.30;;;;;;5055093;28;20135;-55
2023/08/25 12:38:00;;;;;;;23.42;19.52;;;20.00;91.60;;;;;;5048603;28;20021;-49
2023/08/25 12:40:37;;;;;;;22.48;20.15;;;19.90;91.70;;;;;;5043324;28;20029;-52
2023/08/25 12:43:04;;;;;;;21.05;18.95;;;19.90;92.00;;;;;;5056765;28;20102;-54